createdAt,value
2019-01-08T00:02:08.134Z,14.80
2019-01-08T00:04:36.097Z,15.23
2019-01-08T00:07:03.988Z,15.03
2019-01-08T00:09:31.843Z,15.13
2019-01-08T00:11:59.713Z,16.77
2019-01-08T00:14:27.594Z,14.93
2019-01-08T00:16:55.464Z,14.63
2019-01-08T00:19:23.381Z,14.93
2019-01-08T00:21:51.293Z,14.33
2019-01-08T00:24:19.202Z,13.20
2019-01-08T00:26:47.118Z,15.30
2019-01-08T00:29:15.037Z,14.13
2019-01-08T00:31:42.891Z,13.60
2019-01-08T00:34:10.782Z,13.90
2019-01-08T00:36:38.657Z,15.80
2019-01-08T00:39:07.178Z,14.93
2019-01-08T00:41:35.018Z,13.77
2019-01-08T00:44:02.893Z,14.10
2019-01-08T00:46:30.849Z,14.70
2019-01-08T00:48:58.808Z,15.47
2019-01-08T00:51:26.743Z,13.63
2019-01-08T00:53:54.584Z,14.23
2019-01-08T00:56:22.460Z,15.20
2019-01-08T00:58:51.611Z,16.23
2019-01-08T01:01:19.805Z,14.97
2019-01-08T01:03:47.723Z,13.93
2019-01-08T01:06:15.547Z,13.63
2019-01-08T01:08:43.392Z,13.20
2019-01-08T01:11:11.272Z,14.43
2019-01-08T01:13:39.157Z,14.40
2019-01-08T01:16:07.025Z,12.87
2019-01-08T01:18:34.954Z,13.00
2019-01-08T01:21:02.859Z,13.77
2019-01-08T01:23:30.736Z,13.30
2019-01-08T01:25:58.636Z,12.33
2019-01-08T01:28:26.546Z,13.07
2019-01-08T01:30:54.397Z,11.67
2019-01-08T01:33:22.253Z,11.97
2019-01-08T01:35:50.157Z,10.63
2019-01-08T01:38:18.028Z,11.50
2019-01-08T01:40:45.976Z,10.37
2019-01-08T01:43:13.851Z,9.33
2019-01-08T01:45:41.768Z,9.97
2019-01-08T01:48:09.714Z,10.43
2019-01-08T01:50:37.596Z,9.77
2019-01-08T01:53:05.471Z,10.40
2019-01-08T01:55:33.335Z,9.20
2019-01-08T01:58:01.204Z,9.40
2019-01-08T02:00:29.135Z,11.00
2019-01-08T02:02:57.119Z,10.13
2019-01-08T02:05:24.966Z,8.93
2019-01-08T02:07:52.807Z,9.43
2019-01-08T02:10:20.682Z,9.53
2019-01-08T02:12:48.580Z,9.80
2019-01-08T02:15:16.535Z,10.60
2019-01-08T02:17:44.370Z,9.33
2019-01-08T02:20:12.445Z,9.60
2019-01-08T02:22:40.342Z,9.67
2019-01-08T02:25:08.228Z,10.00
2019-01-08T02:27:36.372Z,9.67
2019-01-08T02:30:04.382Z,11.27
2019-01-08T02:32:32.208Z,10.20
2019-01-08T02:35:00.197Z,10.27
2019-01-08T02:37:30.604Z,11.10
2019-01-08T02:39:58.612Z,10.93
2019-01-08T02:42:26.906Z,10.27
2019-01-08T02:44:55.558Z,9.60
2019-01-08T02:47:23.470Z,10.67
2019-01-08T02:49:51.527Z,10.77
2019-01-08T02:52:19.380Z,9.93
2019-01-08T02:54:47.342Z,10.70
2019-01-08T02:57:15.290Z,10.17
2019-01-08T02:59:43.183Z,10.73
2019-01-08T03:02:11.278Z,10.57
2019-01-08T03:04:39.109Z,10.83
2019-01-08T03:07:06.944Z,9.70
2019-01-08T03:09:38.119Z,9.80
2019-01-08T03:12:06.007Z,9.70
2019-01-08T03:14:33.861Z,9.70
2019-01-08T03:17:01.783Z,10.57
2019-01-08T03:19:29.596Z,10.40
2019-01-08T03:21:57.600Z,9.53
2019-01-08T03:24:25.452Z,10.30
2019-01-08T03:26:53.380Z,10.33
2019-01-08T03:29:21.275Z,9.23
2019-01-08T03:31:49.140Z,10.00
2019-01-08T03:34:17.043Z,9.53
2019-01-08T03:36:44.938Z,9.00
2019-01-08T03:39:13.104Z,9.63
2019-01-08T03:41:41.035Z,9.67
2019-01-08T03:44:09.066Z,10.20
2019-01-08T03:46:36.914Z,9.70
2019-01-08T03:49:06.733Z,9.83
2019-01-08T03:51:34.901Z,10.30
2019-01-08T03:54:02.769Z,9.47
2019-01-08T03:56:30.611Z,9.93
2019-01-08T03:58:59.562Z,9.80
2019-01-08T04:01:27.462Z,9.13
2019-01-08T04:03:55.360Z,9.37
2019-01-08T04:06:23.220Z,9.03
2019-01-08T04:08:51.077Z,9.83
2019-01-08T04:11:18.898Z,9.40
2019-01-08T04:13:46.815Z,10.63
2019-01-08T04:16:14.684Z,8.77
2019-01-08T04:18:42.592Z,9.53
2019-01-08T04:21:10.464Z,9.30
2019-01-08T04:23:38.338Z,9.03
2019-01-08T04:26:06.155Z,8.87
2019-01-08T04:28:34.098Z,9.00
2019-01-08T04:31:01.994Z,9.93
2019-01-08T04:33:29.819Z,10.20
2019-01-08T04:35:57.885Z,10.67
2019-01-08T04:38:25.661Z,10.03
2019-01-08T04:40:53.498Z,10.07
2019-01-08T04:43:21.349Z,9.57
2019-01-08T04:45:49.176Z,9.40
2019-01-08T04:48:16.993Z,9.97
2019-01-08T04:50:44.970Z,9.57
2019-01-08T04:53:12.853Z,9.00
2019-01-08T04:55:40.733Z,9.80
2019-01-08T04:58:08.627Z,9.00
2019-01-08T05:00:36.498Z,10.67
2019-01-08T05:03:04.401Z,9.90
2019-01-08T05:05:32.314Z,10.17
2019-01-08T05:08:00.166Z,9.83
2019-01-08T05:10:29.191Z,9.13
2019-01-08T05:12:57.665Z,10.27
2019-01-08T05:15:25.512Z,10.00
2019-01-08T05:17:53.378Z,10.67
2019-01-08T05:20:21.204Z,9.93
2019-01-08T05:22:49.083Z,10.00
2019-01-08T05:25:16.937Z,10.80
2019-01-08T05:27:44.781Z,10.47
2019-01-08T05:30:12.655Z,9.33
2019-01-08T05:32:40.566Z,10.10
2019-01-08T05:35:08.865Z,9.80
2019-01-08T05:37:36.684Z,10.10
2019-01-08T05:40:04.659Z,10.93
2019-01-08T05:42:32.487Z,9.67
2019-01-08T05:45:00.298Z,9.70
2019-01-08T05:47:28.160Z,9.53
2019-01-08T05:49:56.200Z,9.60
2019-01-08T05:52:24.038Z,10.10
2019-01-08T05:54:51.884Z,10.83
2019-01-08T05:57:19.763Z,9.73
2019-01-08T05:59:49.832Z,10.30
2019-01-08T06:02:17.722Z,9.70
2019-01-08T06:04:45.543Z,9.80
2019-01-08T06:07:13.479Z,10.00
2019-01-08T06:09:41.433Z,10.50
2019-01-08T06:12:09.272Z,9.43
2019-01-08T06:14:37.107Z,10.00
2019-01-08T06:17:05.214Z,10.03
2019-01-08T06:19:33.202Z,10.30
2019-01-08T06:22:01.193Z,10.50
2019-01-08T06:24:29.037Z,9.90
2019-01-08T06:26:56.910Z,10.57
2019-01-08T06:29:24.803Z,8.80
2019-01-08T06:31:52.659Z,10.10
2019-01-08T06:34:20.487Z,10.70
2019-01-08T06:36:48.337Z,9.77
2019-01-08T06:39:16.294Z,9.90
2019-01-08T06:41:44.323Z,10.33
2019-01-08T06:44:12.253Z,9.43
2019-01-08T06:46:43.109Z,8.27
2019-01-08T06:49:10.600Z,10.00
2019-01-08T06:51:38.449Z,8.70
2019-01-08T06:54:06.333Z,9.37
2019-01-08T06:56:34.534Z,10.37
2019-01-08T06:59:03.382Z,9.20
2019-01-08T07:01:31.267Z,8.97
2019-01-08T07:03:59.113Z,9.60
2019-01-08T07:06:27.044Z,9.93
2019-01-08T07:08:56.373Z,9.60
2019-01-08T07:11:24.290Z,9.23
2019-01-08T07:13:52.155Z,9.00
2019-01-08T07:16:20.115Z,9.03
2019-01-08T07:18:47.970Z,9.47
2019-01-08T07:21:15.819Z,8.50
2019-01-08T07:23:43.859Z,9.10
2019-01-08T07:26:11.837Z,8.17
2019-01-08T07:28:41.134Z,8.00
2019-01-08T07:31:09.234Z,9.07
2019-01-08T07:33:37.059Z,7.90
2019-01-08T07:36:05.186Z,8.30
2019-01-08T07:38:33.215Z,8.53
2019-01-08T07:41:03.468Z,9.20
2019-01-08T07:43:31.372Z,9.27
2019-01-08T07:45:59.282Z,9.53
2019-01-08T07:48:27.223Z,8.70
2019-01-08T07:50:55.383Z,9.40
2019-01-08T07:53:23.420Z,9.80
2019-01-08T07:55:51.456Z,9.67
2019-01-08T07:58:19.685Z,9.17
2019-01-08T08:00:50.060Z,9.03
2019-01-08T08:03:17.400Z,9.97
2019-01-08T08:05:45.298Z,10.20
2019-01-08T08:08:13.158Z,9.07
2019-01-08T08:10:41.007Z,9.27
2019-01-08T08:13:08.888Z,9.47
2019-01-08T08:15:36.684Z,9.73
2019-01-08T08:18:04.825Z,8.10
2019-01-08T08:20:32.639Z,7.97
2019-01-08T08:23:00.461Z,7.47
2019-01-08T08:25:28.349Z,7.30
2019-01-08T08:27:56.257Z,7.80
2019-01-08T08:30:26.202Z,6.87
2019-01-08T08:32:54.430Z,7.53
2019-01-08T08:35:22.351Z,6.83
2019-01-08T08:37:50.309Z,7.30
2019-01-08T08:40:18.437Z,6.43
2019-01-08T08:42:46.248Z,6.23
2019-01-08T08:45:14.094Z,6.43
2019-01-08T08:47:41.958Z,6.03
2019-01-08T08:50:09.789Z,6.10
2019-01-08T08:52:37.606Z,6.77
2019-01-08T08:55:05.687Z,6.27
2019-01-08T08:57:33.591Z,5.93
2019-01-08T09:00:01.486Z,5.60
2019-01-08T09:02:29.487Z,5.17
2019-01-08T09:04:57.338Z,5.90
2019-01-08T09:07:25.169Z,5.30
2019-01-08T09:09:52.914Z,5.93
2019-01-08T09:12:20.724Z,4.80
2019-01-08T09:14:48.596Z,4.80
2019-01-08T09:17:16.477Z,4.90
2019-01-08T09:19:44.425Z,5.03
2019-01-08T09:22:12.217Z,4.90
2019-01-08T09:24:40.032Z,4.67
2019-01-08T09:27:08.161Z,4.17
2019-01-08T09:29:36.049Z,4.47
2019-01-08T09:32:03.929Z,3.67
2019-01-08T09:34:33.587Z,3.40
2019-01-08T09:37:01.445Z,3.67
2019-01-08T09:39:29.286Z,3.20
2019-01-08T09:41:57.270Z,3.33
2019-01-08T09:44:25.076Z,3.83
2019-01-08T09:46:52.942Z,3.07
2019-01-08T09:49:20.790Z,2.70
2019-01-08T09:51:48.620Z,4.23
2019-01-08T09:54:16.521Z,3.10
2019-01-08T09:56:45.255Z,3.20
2019-01-08T09:59:13.144Z,3.60
2019-01-08T10:01:41.004Z,3.60
2019-01-08T10:04:08.811Z,3.10
2019-01-08T10:06:36.620Z,3.83
2019-01-08T10:09:05.362Z,3.40
2019-01-08T10:11:33.211Z,3.60
2019-01-08T10:14:01.113Z,3.27
2019-01-08T10:16:28.961Z,3.63
2019-01-08T10:18:56.786Z,3.30
2019-01-08T10:21:24.671Z,3.50
2019-01-08T10:23:52.569Z,3.80
2019-01-08T10:26:20.401Z,3.63
2019-01-08T10:28:48.244Z,4.10
2019-01-08T10:31:16.059Z,3.60
2019-01-08T10:33:43.881Z,3.50
2019-01-08T10:36:11.791Z,3.50
2019-01-08T10:38:39.610Z,3.20
2019-01-08T10:41:07.562Z,3.30
2019-01-08T10:43:35.467Z,3.43
2019-01-08T10:46:03.293Z,3.43
2019-01-08T10:48:31.143Z,3.77
2019-01-08T10:50:59.185Z,3.43
2019-01-08T10:53:27.056Z,3.33
2019-01-08T10:55:54.877Z,2.93
2019-01-08T10:58:22.712Z,3.50
2019-01-08T11:00:50.543Z,3.07
2019-01-08T11:03:18.370Z,3.27
2019-01-08T11:05:46.247Z,3.17
2019-01-08T11:08:14.067Z,2.90
2019-01-08T11:10:41.967Z,4.00
2019-01-08T11:13:09.793Z,3.70
2019-01-08T11:15:37.974Z,3.83
2019-01-08T11:18:05.800Z,3.63
2019-01-08T11:20:33.623Z,3.60
2019-01-08T11:23:01.526Z,2.60
2019-01-08T11:25:29.495Z,2.90
2019-01-08T11:27:57.447Z,3.00
2019-01-08T11:30:25.331Z,4.07
2019-01-08T11:32:54.797Z,2.40
2019-01-08T11:35:22.890Z,3.37
2019-01-08T11:37:50.738Z,3.10
2019-01-08T11:40:18.584Z,3.47
2019-01-08T11:42:46.554Z,3.00
2019-01-08T11:45:14.462Z,3.83
2019-01-08T11:47:42.443Z,2.60
2019-01-08T11:50:10.282Z,2.67
2019-01-08T11:52:38.170Z,3.47
2019-01-08T11:55:06.009Z,2.70
2019-01-08T11:57:33.918Z,2.40
2019-01-08T12:00:01.744Z,2.70
2019-01-08T12:02:29.679Z,3.00
2019-01-08T12:04:57.493Z,2.57
2019-01-08T12:07:31.128Z,2.80
2019-01-08T12:09:54.973Z,3.47
2019-01-08T12:12:23.017Z,2.83
2019-01-08T12:14:50.995Z,2.50
2019-01-08T12:17:18.825Z,2.40
2019-01-08T12:19:47.019Z,2.30
2019-01-08T12:22:14.856Z,3.47
2019-01-08T12:24:42.703Z,2.57
2019-01-08T12:27:10.620Z,3.30
2019-01-08T12:29:38.521Z,3.03
2019-01-08T12:32:06.657Z,3.43
2019-01-08T12:34:34.585Z,2.07
2019-01-08T12:37:02.411Z,3.07
2019-01-08T12:39:30.277Z,3.20
2019-01-08T12:41:58.193Z,3.13
2019-01-08T12:44:26.037Z,2.83
2019-01-08T12:46:53.903Z,3.50
2019-01-08T12:49:21.725Z,3.07
2019-01-08T12:51:50.325Z,3.00
2019-01-08T12:54:18.152Z,2.63
2019-01-08T12:56:46.057Z,2.80
2019-01-08T12:59:14.036Z,3.00
2019-01-08T13:01:42.045Z,3.70
2019-01-08T13:04:10.742Z,2.93
2019-01-08T13:06:38.637Z,3.20
2019-01-08T13:09:07.922Z,2.93
2019-01-08T13:11:35.877Z,3.03
2019-01-08T13:14:03.742Z,3.10
2019-01-08T13:16:31.758Z,3.03
2019-01-08T13:18:59.722Z,3.47
2019-01-08T13:21:27.561Z,3.40
2019-01-08T13:23:55.439Z,2.80
2019-01-08T13:26:23.369Z,3.07
2019-01-08T13:28:51.472Z,3.40
2019-01-08T13:31:19.398Z,3.27
2019-01-08T13:33:47.239Z,4.20
2019-01-08T13:36:15.227Z,2.90
2019-01-08T13:38:43.065Z,3.30
2019-01-08T13:41:10.891Z,3.10
2019-01-08T13:43:38.900Z,2.77
2019-01-08T13:46:06.781Z,3.30
2019-01-08T13:48:34.648Z,3.07
2019-01-08T13:51:02.468Z,3.47
2019-01-08T13:53:30.342Z,3.60
2019-01-08T13:55:58.244Z,2.80
2019-01-08T13:58:26.103Z,3.20
2019-01-08T14:00:54.070Z,3.70
2019-01-08T14:03:22.002Z,3.43
2019-01-08T14:05:49.820Z,3.33
2019-01-08T14:08:17.626Z,2.97
2019-01-08T14:10:45.525Z,3.20
2019-01-08T14:13:13.646Z,3.30
2019-01-08T14:15:41.489Z,3.67
2019-01-08T14:18:09.328Z,2.60
2019-01-08T14:20:37.257Z,3.10
2019-01-08T14:23:05.106Z,3.10
2019-01-08T14:25:32.979Z,2.87
2019-01-08T14:28:00.824Z,2.93
2019-01-08T14:30:28.638Z,3.50
2019-01-08T14:32:56.711Z,2.90
2019-01-08T14:35:24.564Z,3.43
2019-01-08T14:37:52.451Z,3.50
2019-01-08T14:40:20.268Z,3.23
2019-01-08T14:42:48.136Z,2.80
2019-01-08T14:45:15.985Z,3.20
2019-01-08T14:47:44.658Z,3.90
2019-01-08T14:50:12.585Z,3.00
2019-01-08T14:52:40.429Z,3.30
2019-01-08T14:55:08.336Z,3.13
2019-01-08T14:57:36.157Z,3.67
2019-01-08T15:00:04.201Z,3.63
2019-01-08T15:02:32.370Z,3.67
2019-01-08T15:05:00.280Z,3.57
2019-01-08T15:07:28.052Z,3.80
2019-01-08T15:09:56.096Z,3.67
2019-01-08T15:12:23.929Z,4.33
2019-01-08T15:14:51.717Z,4.00
2019-01-08T15:17:19.633Z,3.27
2019-01-08T15:19:47.530Z,3.43
2019-01-08T15:22:15.810Z,3.40
2019-01-08T15:24:43.931Z,3.63
2019-01-08T15:27:11.865Z,3.23
2019-01-08T15:29:39.733Z,3.13
2019-01-08T15:32:07.625Z,2.90
2019-01-08T15:34:35.504Z,2.80
2019-01-08T15:37:03.642Z,2.83
2019-01-08T15:39:31.504Z,2.60
2019-01-08T15:41:59.368Z,3.00
2019-01-08T15:44:27.244Z,2.67
2019-01-08T15:46:55.200Z,2.40
2019-01-08T15:49:24.610Z,2.20
2019-01-08T15:51:52.613Z,3.13
2019-01-08T15:54:21.655Z,2.17
2019-01-08T15:56:49.850Z,2.17
2019-01-08T15:59:17.755Z,2.33
2019-01-08T16:01:45.613Z,2.40
2019-01-08T16:04:13.465Z,2.37
2019-01-08T16:06:41.311Z,2.30
2019-01-08T16:09:09.570Z,2.57
2019-01-08T16:11:37.647Z,2.70
2019-01-08T16:14:05.608Z,2.40
2019-01-08T16:16:33.461Z,1.90
2019-01-08T16:19:01.276Z,2.27
2019-01-08T16:21:30.743Z,1.80
2019-01-08T16:23:58.963Z,1.90
2019-01-08T16:26:26.889Z,2.47
2019-01-08T16:28:54.747Z,2.10
2019-01-08T16:31:22.648Z,2.73
2019-01-08T16:33:50.600Z,2.10
2019-01-08T16:36:19.337Z,2.57
2019-01-08T16:38:54.280Z,2.50
2019-01-08T16:41:22.447Z,2.50
2019-01-08T16:43:50.403Z,2.43
2019-01-08T16:46:18.200Z,2.90
2019-01-08T16:48:46.246Z,2.67
2019-01-08T16:51:14.169Z,2.80
2019-01-08T16:53:41.995Z,2.63
2019-01-08T16:56:11.281Z,3.37
2019-01-08T16:58:40.004Z,2.97
2019-01-08T17:01:09.536Z,3.27
2019-01-08T17:03:37.456Z,2.40
2019-01-08T17:06:05.564Z,3.13
2019-01-08T17:08:33.436Z,3.27
2019-01-08T17:11:01.756Z,3.43
2019-01-08T17:13:30.549Z,2.40
2019-01-08T17:15:58.374Z,2.17
2019-01-08T17:18:30.237Z,1.80
2019-01-08T17:20:58.106Z,2.50
2019-01-08T17:23:26.115Z,2.57
2019-01-08T17:25:53.932Z,2.73
2019-01-08T17:28:22.425Z,2.83
2019-01-08T17:30:50.288Z,3.10
2019-01-08T17:33:21.252Z,3.90
2019-01-08T17:35:49.098Z,3.37
2019-01-08T17:38:17.040Z,3.57
2019-01-08T17:40:44.875Z,3.80
2019-01-08T17:43:12.733Z,3.93
2019-01-08T17:45:40.634Z,3.77
2019-01-08T17:48:08.564Z,3.40
2019-01-08T17:50:36.566Z,3.00
2019-01-08T17:53:04.602Z,3.00
2019-01-08T17:55:32.512Z,3.00
2019-01-08T17:58:22.636Z,2.73
2019-01-08T18:00:50.575Z,2.70
2019-01-08T18:03:18.736Z,2.80
2019-01-08T18:05:46.601Z,3.37
2019-01-08T18:08:14.519Z,2.70
2019-01-08T18:10:42.424Z,2.67
2019-01-08T18:13:10.315Z,2.77
2019-01-08T18:15:38.278Z,2.70
2019-01-08T18:18:06.174Z,2.53
2019-01-08T18:20:34.047Z,2.37
2019-01-08T18:23:01.964Z,2.67
2019-01-08T18:25:29.857Z,2.13
2019-01-08T18:27:57.734Z,2.70
2019-01-08T18:30:25.552Z,2.50
2019-01-08T18:32:53.506Z,2.77
2019-01-08T18:35:24.191Z,2.20
2019-01-08T18:37:52.165Z,2.27
2019-01-08T18:40:22.827Z,2.33
2019-01-08T18:42:50.687Z,2.10
2019-01-08T18:45:18.607Z,2.13
2019-01-08T18:47:49.501Z,2.13
2019-01-08T18:50:18.871Z,2.30
2019-01-08T18:52:46.678Z,2.07
2019-01-08T18:55:14.551Z,2.37
2019-01-08T18:57:42.703Z,2.30
2019-01-08T19:00:10.550Z,2.47
2019-01-08T19:02:38.731Z,2.77
2019-01-08T19:05:07.860Z,2.30
2019-01-08T19:07:35.856Z,1.80
2019-01-08T19:10:06.957Z,3.40
2019-01-08T19:12:34.952Z,3.00
2019-01-08T19:15:02.786Z,2.10
2019-01-08T19:17:39.260Z,3.73
2019-01-08T19:20:07.135Z,3.00
2019-01-08T19:22:34.955Z,4.30
2019-01-08T19:25:03.054Z,4.37
2019-01-08T19:27:35.159Z,3.90
2019-01-08T19:30:03.432Z,3.80
2019-01-08T19:32:31.457Z,4.50
2019-01-08T19:34:59.440Z,4.03
2019-01-08T19:37:27.375Z,3.70
2019-01-08T19:39:55.302Z,3.07
2019-01-08T19:42:23.312Z,3.73
2019-01-08T19:44:51.392Z,3.67
2019-01-08T19:47:19.368Z,4.07
2019-01-08T19:49:47.526Z,3.77
2019-01-08T19:52:15.474Z,3.03
2019-01-08T19:54:43.310Z,3.20
2019-01-08T19:57:11.205Z,3.40
2019-01-08T19:59:39.039Z,3.17
2019-01-08T20:02:07.016Z,3.47
2019-01-08T20:04:34.910Z,4.10
2019-01-08T20:07:02.885Z,3.10
2019-01-08T20:09:30.765Z,4.17
2019-01-08T20:11:58.606Z,3.83
2019-01-08T20:14:26.810Z,3.67
2019-01-08T20:16:54.631Z,3.43
2019-01-08T20:19:22.421Z,3.80
2019-01-08T20:21:50.268Z,3.80
2019-01-08T20:24:18.472Z,3.37
2019-01-08T20:26:46.413Z,3.03
2019-01-08T20:29:14.317Z,4.03
2019-01-08T20:31:42.293Z,2.80
2019-01-08T20:34:10.165Z,2.90
2019-01-08T20:36:38.011Z,4.17
2019-01-08T20:39:08.225Z,3.47
2019-01-08T20:41:36.357Z,3.50
2019-01-08T20:44:04.366Z,3.50
2019-01-08T20:46:32.250Z,3.50
2019-01-08T20:49:02.520Z,3.80
2019-01-08T20:51:30.608Z,3.20
2019-01-08T20:53:58.517Z,3.70
2019-01-08T20:56:26.440Z,3.03
2019-01-08T20:58:54.469Z,3.67
2019-01-08T21:01:25.117Z,2.70
2019-01-08T21:03:52.965Z,3.67
2019-01-08T21:06:20.752Z,3.30
2019-01-08T21:08:48.665Z,2.90
2019-01-08T21:11:16.642Z,3.10
2019-01-08T21:13:44.486Z,3.03
2019-01-08T21:16:14.233Z,3.00
2019-01-08T21:18:46.094Z,2.67
2019-01-08T21:21:15.641Z,3.20
2019-01-08T21:23:43.577Z,3.07
2019-01-08T21:26:12.036Z,3.50
2019-01-08T21:28:40.845Z,2.43
2019-01-08T21:31:11.975Z,2.80
2019-01-08T21:33:43.030Z,2.60
2019-01-08T21:36:11.525Z,2.33
2019-01-08T21:38:41.940Z,2.30
2019-01-08T21:41:19.542Z,2.10
2019-01-08T21:43:53.503Z,2.67
2019-01-08T21:46:21.578Z,1.90
2019-01-08T21:48:50.069Z,1.90
2019-01-08T21:51:18.407Z,3.07
2019-01-08T21:53:46.547Z,2.20
2019-01-08T21:56:14.943Z,2.50
2019-01-08T21:58:45.114Z,2.20
2019-01-08T22:01:21.235Z,3.60
2019-01-08T22:03:51.812Z,2.33
2019-01-08T22:06:19.943Z,3.27
2019-01-08T22:08:47.789Z,2.37
2019-01-08T22:11:15.656Z,3.13
2019-01-08T22:13:44.894Z,2.40
2019-01-08T22:16:12.762Z,2.70
2019-01-08T22:18:40.582Z,2.80
2019-01-08T22:21:08.512Z,2.77
2019-01-08T22:23:37.109Z,2.67
2019-01-08T22:26:04.997Z,3.10
2019-01-08T22:28:32.851Z,3.37
2019-01-08T22:31:01.241Z,2.87
2019-01-08T22:33:29.089Z,2.70
2019-01-08T22:35:57.011Z,3.10
2019-01-08T22:38:24.879Z,3.30
2019-01-08T22:40:52.744Z,2.77
2019-01-08T22:43:20.611Z,3.00
2019-01-08T22:45:48.493Z,2.87
2019-01-08T22:48:16.363Z,2.93
2019-01-08T22:50:45.543Z,3.10
2019-01-08T22:53:14.504Z,2.63
2019-01-08T22:55:42.360Z,3.70
2019-01-08T22:58:09.979Z,3.20
2019-01-08T23:00:55.960Z,3.17
2019-01-08T23:03:24.027Z,2.80
2019-01-08T23:05:52.133Z,3.57
2019-01-08T23:08:19.941Z,2.90
2019-01-08T23:10:48.091Z,3.30
2019-01-08T23:13:16.178Z,2.70
2019-01-08T23:15:44.121Z,3.03
2019-01-08T23:18:11.973Z,2.60
2019-01-08T23:20:40.287Z,2.80
2019-01-08T23:23:08.083Z,2.70
2019-01-08T23:25:35.954Z,2.93
2019-01-08T23:28:03.904Z,2.60
2019-01-08T23:30:31.703Z,2.47
2019-01-08T23:32:59.525Z,2.67
2019-01-08T23:35:27.322Z,2.80
2019-01-08T23:37:55.230Z,2.43
2019-01-08T23:40:23.379Z,2.50
2019-01-08T23:42:51.200Z,2.80
2019-01-08T23:45:19.256Z,2.47
2019-01-08T23:47:47.146Z,2.40
2019-01-08T23:50:14.977Z,2.40
2019-01-08T23:52:48.651Z,2.23
2019-01-08T23:55:16.792Z,2.63
2019-01-08T23:57:46.063Z,2.80
